sensor_id;sensor_type;location;lat;lon;timestamp;pressure;altitude;pressure_sealevel;temperature
12234;BMP180;6179;51.748;8.728;2022-12-29T00:05:13;80106.00;;;222.90
12234;BMP180;6179;51.748;8.728;2022-12-29T00:11:26;80019.00;;;222.90
12234;BMP180;6179;51.748;8.728;2022-12-29T00:17:27;79858.00;;;222.90
12234;BMP180;6179;51.748;8.728;2022-12-29T00:23:28;79773.00;;;222.90
12234;BMP180;6179;51.748;8.728;2022-12-29T00:29:51;79774.00;;;222.90
12234;BMP180;6179;51.748;8.728;2022-12-29T00:42:17;80255.00;;;222.90
12234;BMP180;6179;51.748;8.728;2022-12-29T00:48:38;81742.00;;;222.90
12234;BMP180;6179;51.748;8.728;2022-12-29T00:54:57;81511.00;;;222.90
12234;BMP180;6179;51.748;8.728;2022-12-29T01:01:06;81639.00;;;222.90
12234;BMP180;6179;51.748;8.728;2022-12-29T01:07:07;82004.00;;;222.90
12234;BMP180;6179;51.748;8.728;2022-12-29T01:13:08;80941.00;;;222.90
12234;BMP180;6179;51.748;8.728;2022-12-29T01:19:09;80938.00;;;222.90
12234;BMP180;6179;51.748;8.728;2022-12-29T01:25:10;80613.00;;;222.90
12234;BMP180;6179;51.748;8.728;2022-12-29T01:31:13;80568.00;;;222.90
12234;BMP180;6179;51.748;8.728;2022-12-29T01:37:14;80894.00;;;222.90
12234;BMP180;6179;51.748;8.728;2022-12-29T01:43:15;80747.00;;;222.90
12234;BMP180;6179;51.748;8.728;2022-12-29T01:49:23;80618.00;;;222.90
12234;BMP180;6179;51.748;8.728;2022-12-29T01:55:27;80441.00;;;222.90
12234;BMP180;6179;51.748;8.728;2022-12-29T02:01:29;80425.00;;;222.90
12234;BMP180;6179;51.748;8.728;2022-12-29T02:07:31;80592.00;;;222.90
12234;BMP180;6179;51.748;8.728;2022-12-29T02:13:32;80681.00;;;222.90
12234;BMP180;6179;51.748;8.728;2022-12-29T02:26:29;80736.00;;;222.90
12234;BMP180;6179;51.748;8.728;2022-12-29T02:45:35;80076.00;;;222.90
12234;BMP180;6179;51.748;8.728;2022-12-29T02:58:27;80013.00;;;222.90
12234;BMP180;6179;51.748;8.728;2022-12-29T03:17:08;79720.00;;;222.90
12234;BMP180;6179;51.748;8.728;2022-12-29T03:23:11;79886.00;;;222.90
12234;BMP180;6179;51.748;8.728;2022-12-29T03:29:15;79674.00;;;222.90
12234;BMP180;6179;51.748;8.728;2022-12-29T03:35:22;79990.00;;;222.90
12234;BMP180;6179;51.748;8.728;2022-12-29T03:41:30;80282.00;;;222.90
12234;BMP180;6179;51.748;8.728;2022-12-29T03:47:31;80648.00;;;222.90
12234;BMP180;6179;51.748;8.728;2022-12-29T03:53:32;80594.00;;;222.90
12234;BMP180;6179;51.748;8.728;2022-12-29T03:59:33;81094.00;;;222.90
12234;BMP180;6179;51.748;8.728;2022-12-29T04:05:33;81313.00;;;222.90
12234;BMP180;6179;51.748;8.728;2022-12-29T04:11:34;81251.00;;;222.90
12234;BMP180;6179;51.748;8.728;2022-12-29T04:17:35;81726.00;;;222.90
12234;BMP180;6179;51.748;8.728;2022-12-29T04:23:38;81631.00;;;222.90
12234;BMP180;6179;51.748;8.728;2022-12-29T04:29:39;81640.00;;;222.90
12234;BMP180;6179;51.748;8.728;2022-12-29T04:35:39;81799.00;;;222.90
12234;BMP180;6179;51.748;8.728;2022-12-29T04:41:40;81619.00;;;222.90
12234;BMP180;6179;51.748;8.728;2022-12-29T04:47:41;81648.00;;;222.90
12234;BMP180;6179;51.748;8.728;2022-12-29T04:53:42;80923.00;;;222.90
12234;BMP180;6179;51.748;8.728;2022-12-29T04:59:43;82208.00;;;222.90
12234;BMP180;6179;51.748;8.728;2022-12-29T05:05:44;82611.00;;;222.90
12234;BMP180;6179;51.748;8.728;2022-12-29T05:11:45;82706.00;;;222.90
12234;BMP180;6179;51.748;8.728;2022-12-29T05:17:45;83290.00;;;222.90
12234;BMP180;6179;51.748;8.728;2022-12-29T05:23:46;83138.00;;;222.90
12234;BMP180;6179;51.748;8.728;2022-12-29T05:29:47;82103.00;;;222.90
12234;BMP180;6179;51.748;8.728;2022-12-29T05:35:48;82231.00;;;222.90
12234;BMP180;6179;51.748;8.728;2022-12-29T05:41:49;82043.00;;;222.90
12234;BMP180;6179;51.748;8.728;2022-12-29T05:47:50;82355.00;;;222.90
12234;BMP180;6179;51.748;8.728;2022-12-29T05:53:50;81863.00;;;222.90
12234;BMP180;6179;51.748;8.728;2022-12-29T05:59:51;81947.00;;;222.90
12234;BMP180;6179;51.748;8.728;2022-12-29T06:05:52;81768.00;;;222.90
12234;BMP180;6179;51.748;8.728;2022-12-29T06:11:53;82063.00;;;222.90
12234;BMP180;6179;51.748;8.728;2022-12-29T06:17:53;81490.00;;;222.90
12234;BMP180;6179;51.748;8.728;2022-12-29T06:23:54;80982.00;;;222.90
12234;BMP180;6179;51.748;8.728;2022-12-29T06:29:55;81163.00;;;222.90
12234;BMP180;6179;51.748;8.728;2022-12-29T06:35:58;81051.00;;;222.90
12234;BMP180;6179;51.748;8.728;2022-12-29T06:41:59;81590.00;;;222.90
12234;BMP180;6179;51.748;8.728;2022-12-29T06:48:00;81395.00;;;222.90
12234;BMP180;6179;51.748;8.728;2022-12-29T06:54:00;81545.00;;;222.90
12234;BMP180;6179;51.748;8.728;2022-12-29T07:00:03;81894.00;;;222.90
12234;BMP180;6179;51.748;8.728;2022-12-29T07:06:05;81866.00;;;222.90
12234;BMP180;6179;51.748;8.728;2022-12-29T07:12:06;82029.00;;;222.90
12234;BMP180;6179;51.748;8.728;2022-12-29T07:18:07;81461.00;;;222.90
12234;BMP180;6179;51.748;8.728;2022-12-29T07:24:09;81255.00;;;222.90
12234;BMP180;6179;51.748;8.728;2022-12-29T07:30:10;81216.00;;;222.90
12234;BMP180;6179;51.748;8.728;2022-12-29T07:36:12;81086.00;;;222.90
12234;BMP180;6179;51.748;8.728;2022-12-29T07:42:13;81184.00;;;222.90
12234;BMP180;6179;51.748;8.728;2022-12-29T07:48:14;81104.00;;;222.90
12234;BMP180;6179;51.748;8.728;2022-12-29T07:54:14;81245.00;;;222.90
12234;BMP180;6179;51.748;8.728;2022-12-29T08:00:18;81194.00;;;222.90
12234;BMP180;6179;51.748;8.728;2022-12-29T08:06:19;81780.00;;;222.90
12234;BMP180;6179;51.748;8.728;2022-12-29T08:12:20;81231.00;;;222.90
12234;BMP180;6179;51.748;8.728;2022-12-29T08:18:21;81690.00;;;222.90
12234;BMP180;6179;51.748;8.728;2022-12-29T08:24:22;81002.00;;;222.90
12234;BMP180;6179;51.748;8.728;2022-12-29T08:30:23;80818.00;;;222.90
12234;BMP180;6179;51.748;8.728;2022-12-29T08:36:23;81746.00;;;222.90
12234;BMP180;6179;51.748;8.728;2022-12-29T08:42:24;81759.00;;;222.90
12234;BMP180;6179;51.748;8.728;2022-12-29T08:48:29;82315.00;;;222.90
12234;BMP180;6179;51.748;8.728;2022-12-29T08:54:30;82520.00;;;222.90
12234;BMP180;6179;51.748;8.728;2022-12-29T09:00:30;82257.00;;;222.90
12234;BMP180;6179;51.748;8.728;2022-12-29T09:06:31;82374.00;;;222.90
12234;BMP180;6179;51.748;8.728;2022-12-29T09:12:32;81996.00;;;222.90
12234;BMP180;6179;51.748;8.728;2022-12-29T09:18:33;82933.00;;;222.90
12234;BMP180;6179;51.748;8.728;2022-12-29T09:24:34;82554.00;;;222.90
12234;BMP180;6179;51.748;8.728;2022-12-29T09:30:35;82773.00;;;222.90
12234;BMP180;6179;51.748;8.728;2022-12-29T09:36:36;82720.00;;;222.90
12234;BMP180;6179;51.748;8.728;2022-12-29T09:49:40;81738.00;;;222.90
12234;BMP180;6179;51.748;8.728;2022-12-29T09:55:50;81626.00;;;222.90
12234;BMP180;6179;51.748;8.728;2022-12-29T10:02:16;81525.00;;;222.90
12234;BMP180;6179;51.748;8.728;2022-12-29T10:15:58;81004.00;;;222.90
12234;BMP180;6179;51.748;8.728;2022-12-29T10:29:04;81186.00;;;222.90
12234;BMP180;6179;51.748;8.728;2022-12-29T10:35:17;80945.00;;;222.90
12234;BMP180;6179;51.748;8.728;2022-12-29T10:41:27;81096.00;;;222.90
12234;BMP180;6179;51.748;8.728;2022-12-29T10:47:35;81196.00;;;222.90
12234;BMP180;6179;51.748;8.728;2022-12-29T10:53:43;81312.00;;;222.90
12234;BMP180;6179;51.748;8.728;2022-12-29T10:59:45;80855.00;;;222.90
12234;BMP180;6179;51.748;8.728;2022-12-29T11:18:35;80585.00;;;222.90
12234;BMP180;6179;51.748;8.728;2022-12-29T11:24:45;80796.00;;;222.90
12234;BMP180;6179;51.748;8.728;2022-12-29T11:31:01;80113.00;;;222.90
12234;BMP180;6179;51.748;8.728;2022-12-29T11:37:29;81219.00;;;222.90
12234;BMP180;6179;51.748;8.728;2022-12-29T11:43:36;80297.00;;;222.90
12234;BMP180;6179;51.748;8.728;2022-12-29T11:49:38;80407.00;;;222.90
12234;BMP180;6179;51.748;8.728;2022-12-29T11:55:39;80095.00;;;222.90
12234;BMP180;6179;51.748;8.728;2022-12-29T12:01:41;79855.00;;;222.90
12234;BMP180;6179;51.748;8.728;2022-12-29T12:07:47;80207.00;;;222.90
12234;BMP180;6179;51.748;8.728;2022-12-29T12:14:06;80531.00;;;222.90
12234;BMP180;6179;51.748;8.728;2022-12-29T12:27:00;80981.00;;;222.90
12234;BMP180;6179;51.748;8.728;2022-12-29T12:45:45;80217.00;;;222.90
12234;BMP180;6179;51.748;8.728;2022-12-29T12:52:28;79987.00;;;222.90
12234;BMP180;6179;51.748;8.728;2022-12-29T12:59:00;80244.00;;;222.90
12234;BMP180;6179;51.748;8.728;2022-12-29T13:05:29;80350.00;;;222.90
12234;BMP180;6179;51.748;8.728;2022-12-29T13:31:55;81288.00;;;222.90
12234;BMP180;6179;51.748;8.728;2022-12-29T13:38:17;81249.00;;;222.90
12234;BMP180;6179;51.748;8.728;2022-12-29T13:44:30;81327.00;;;222.90
12234;BMP180;6179;51.748;8.728;2022-12-29T13:50:36;81546.00;;;222.90
12234;BMP180;6179;51.748;8.728;2022-12-29T13:57:10;81576.00;;;222.90
12234;BMP180;6179;51.748;8.728;2022-12-29T14:09:47;81452.00;;;222.90
12234;BMP180;6179;51.748;8.728;2022-12-29T14:15:55;80425.00;;;222.90
12234;BMP180;6179;51.748;8.728;2022-12-29T14:22:02;80782.00;;;222.90
12234;BMP180;6179;51.748;8.728;2022-12-29T14:28:19;80729.00;;;222.90
12234;BMP180;6179;51.748;8.728;2022-12-29T14:34:28;81061.00;;;222.90
12234;BMP180;6179;51.748;8.728;2022-12-29T14:40:29;81229.00;;;222.90
12234;BMP180;6179;51.748;8.728;2022-12-29T14:46:58;81214.00;;;222.90
12234;BMP180;6179;51.748;8.728;2022-12-29T14:53:03;80989.00;;;222.90
12234;BMP180;6179;51.748;8.728;2022-12-29T14:59:10;80795.00;;;222.90
12234;BMP180;6179;51.748;8.728;2022-12-29T15:05:41;80980.00;;;222.90
12234;BMP180;6179;51.748;8.728;2022-12-29T15:11:51;80384.00;;;222.90
12234;BMP180;6179;51.748;8.728;2022-12-29T15:17:53;80323.00;;;222.90
12234;BMP180;6179;51.748;8.728;2022-12-29T15:23:54;79986.00;;;222.90
12234;BMP180;6179;51.748;8.728;2022-12-29T15:29:59;80054.00;;;222.90
12234;BMP180;6179;51.748;8.728;2022-12-29T15:36:10;79827.00;;;222.90
12234;BMP180;6179;51.748;8.728;2022-12-29T15:42:56;80325.00;;;222.90
12234;BMP180;6179;51.748;8.728;2022-12-29T15:48:58;80217.00;;;222.90
12234;BMP180;6179;51.748;8.728;2022-12-29T15:55:01;80607.00;;;222.90
12234;BMP180;6179;51.748;8.728;2022-12-29T16:01:03;80517.00;;;222.90
12234;BMP180;6179;51.748;8.728;2022-12-29T16:07:19;81038.00;;;222.90
12234;BMP180;6179;51.748;8.728;2022-12-29T16:13:33;80925.00;;;222.90
12234;BMP180;6179;51.748;8.728;2022-12-29T16:19:41;81354.00;;;222.90
12234;BMP180;6179;51.748;8.728;2022-12-29T16:25:43;81162.00;;;222.90
12234;BMP180;6179;51.748;8.728;2022-12-29T16:31:54;80697.00;;;222.90
12234;BMP180;6179;51.748;8.728;2022-12-29T16:38:21;81343.00;;;222.90
12234;BMP180;6179;51.748;8.728;2022-12-29T16:44:30;81161.00;;;222.90
12234;BMP180;6179;51.748;8.728;2022-12-29T16:50:37;80997.00;;;222.90
12234;BMP180;6179;51.748;8.728;2022-12-29T16:56:44;80980.00;;;222.90
12234;BMP180;6179;51.748;8.728;2022-12-29T17:02:46;81276.00;;;222.90
12234;BMP180;6179;51.748;8.728;2022-12-29T17:08:49;81112.00;;;222.90
12234;BMP180;6179;51.748;8.728;2022-12-29T17:15:01;81115.00;;;222.90
12234;BMP180;6179;51.748;8.728;2022-12-29T17:21:02;81185.00;;;222.90
12234;BMP180;6179;51.748;8.728;2022-12-29T17:27:03;80958.00;;;222.90
12234;BMP180;6179;51.748;8.728;2022-12-29T17:33:10;81066.00;;;222.90
12234;BMP180;6179;51.748;8.728;2022-12-29T17:39:12;81266.00;;;222.90
12234;BMP180;6179;51.748;8.728;2022-12-29T17:45:23;80982.00;;;222.90
12234;BMP180;6179;51.748;8.728;2022-12-29T17:51:25;80385.00;;;222.90
12234;BMP180;6179;51.748;8.728;2022-12-29T17:57:25;80615.00;;;222.90
12234;BMP180;6179;51.748;8.728;2022-12-29T18:03:36;80503.00;;;222.90
12234;BMP180;6179;51.748;8.728;2022-12-29T18:09:37;80169.00;;;222.90
12234;BMP180;6179;51.748;8.728;2022-12-29T18:15:38;80423.00;;;222.90
12234;BMP180;6179;51.748;8.728;2022-12-29T18:21:42;80012.00;;;222.90
12234;BMP180;6179;51.748;8.728;2022-12-29T18:27:42;79788.00;;;222.90
12234;BMP180;6179;51.748;8.728;2022-12-29T18:33:44;79955.00;;;222.90
12234;BMP180;6179;51.748;8.728;2022-12-29T18:39:44;80378.00;;;222.90
12234;BMP180;6179;51.748;8.728;2022-12-29T18:45:46;80215.00;;;222.90
12234;BMP180;6179;51.748;8.728;2022-12-29T18:51:47;80208.00;;;222.90
12234;BMP180;6179;51.748;8.728;2022-12-29T18:57:48;80447.00;;;222.90
12234;BMP180;6179;51.748;8.728;2022-12-29T19:03:50;80286.00;;;222.90
12234;BMP180;6179;51.748;8.728;2022-12-29T19:09:51;80374.00;;;222.90
12234;BMP180;6179;51.748;8.728;2022-12-29T19:15:52;80827.00;;;222.90
12234;BMP180;6179;51.748;8.728;2022-12-29T19:21:53;80965.00;;;222.90
12234;BMP180;6179;51.748;8.728;2022-12-29T19:27:57;81414.00;;;222.90
12234;BMP180;6179;51.748;8.728;2022-12-29T19:34:01;81963.00;;;222.90
12234;BMP180;6179;51.748;8.728;2022-12-29T19:40:03;81725.00;;;222.90
12234;BMP180;6179;51.748;8.728;2022-12-29T19:46:11;81556.00;;;222.90
12234;BMP180;6179;51.748;8.728;2022-12-29T19:52:12;81825.00;;;222.90
12234;BMP180;6179;51.748;8.728;2022-12-29T19:58:14;81659.00;;;222.90
12234;BMP180;6179;51.748;8.728;2022-12-29T20:04:14;81875.00;;;222.90
12234;BMP180;6179;51.748;8.728;2022-12-29T20:10:15;82091.00;;;222.90
12234;BMP180;6179;51.748;8.728;2022-12-29T20:16:18;81589.00;;;222.90
12234;BMP180;6179;51.748;8.728;2022-12-29T20:22:19;81291.00;;;222.90
12234;BMP180;6179;51.748;8.728;2022-12-29T20:28:21;80916.00;;;222.90
12234;BMP180;6179;51.748;8.728;2022-12-29T20:34:22;80901.00;;;222.90
12234;BMP180;6179;51.748;8.728;2022-12-29T20:40:24;80911.00;;;222.90
12234;BMP180;6179;51.748;8.728;2022-12-29T20:46:26;81081.00;;;222.90
12234;BMP180;6179;51.748;8.728;2022-12-29T20:52:27;81091.00;;;222.90
12234;BMP180;6179;51.748;8.728;2022-12-29T20:58:28;81107.00;;;222.90
12234;BMP180;6179;51.748;8.728;2022-12-29T21:04:29;80877.00;;;222.90
12234;BMP180;6179;51.748;8.728;2022-12-29T21:10:30;81346.00;;;222.90
12234;BMP180;6179;51.748;8.728;2022-12-29T21:16:31;81240.00;;;222.90
12234;BMP180;6179;51.748;8.728;2022-12-29T21:22:32;80878.00;;;222.90
12234;BMP180;6179;51.748;8.728;2022-12-29T21:28:33;80582.00;;;222.90
12234;BMP180;6179;51.748;8.728;2022-12-29T21:34:37;80578.00;;;222.90
12234;BMP180;6179;51.748;8.728;2022-12-29T21:40:39;80640.00;;;222.90
12234;BMP180;6179;51.748;8.728;2022-12-29T21:46:40;80674.00;;;222.90
12234;BMP180;6179;51.748;8.728;2022-12-29T21:52:43;80260.00;;;222.90
12234;BMP180;6179;51.748;8.728;2022-12-29T21:58:48;80863.00;;;222.90
12234;BMP180;6179;51.748;8.728;2022-12-29T22:05:11;80907.00;;;222.90
12234;BMP180;6179;51.748;8.728;2022-12-29T22:11:31;81045.00;;;222.90
12234;BMP180;6179;51.748;8.728;2022-12-29T22:17:53;80905.00;;;222.90
12234;BMP180;6179;51.748;8.728;2022-12-29T22:23:54;80822.00;;;222.90
12234;BMP180;6179;51.748;8.728;2022-12-29T22:29:54;81324.00;;;222.90
12234;BMP180;6179;51.748;8.728;2022-12-29T22:35:55;81447.00;;;222.90
12234;BMP180;6179;51.748;8.728;2022-12-29T22:41:56;81276.00;;;222.90
12234;BMP180;6179;51.748;8.728;2022-12-29T22:47:57;81044.00;;;222.90
12234;BMP180;6179;51.748;8.728;2022-12-29T22:53:57;80880.00;;;222.90
12234;BMP180;6179;51.748;8.728;2022-12-29T22:59:58;80601.00;;;222.90
12234;BMP180;6179;51.748;8.728;2022-12-29T23:06:02;81084.00;;;222.90
12234;BMP180;6179;51.748;8.728;2022-12-29T23:12:03;81318.00;;;222.90
12234;BMP180;6179;51.748;8.728;2022-12-29T23:18:04;81145.00;;;222.90
12234;BMP180;6179;51.748;8.728;2022-12-29T23:24:05;81176.00;;;222.90
12234;BMP180;6179;51.748;8.728;2022-12-29T23:30:07;81382.00;;;222.90
12234;BMP180;6179;51.748;8.728;2022-12-29T23:36:08;82203.00;;;222.90
12234;BMP180;6179;51.748;8.728;2022-12-29T23:42:09;82496.00;;;222.90
12234;BMP180;6179;51.748;8.728;2022-12-29T23:48:11;82025.00;;;222.90
12234;BMP180;6179;51.748;8.728;2022-12-29T23:54:12;82095.00;;;222.90
